Time;durP1;ratioP1;P1;durP2;ratioP2;P2;SDS_P1;SDS_P2;PMS_P1;PMS_P2;Temp;Humidity;BMP_temperature;BMP_pressure;BME280_temperature;BME280_humidity;BME280_pressure;Samples;Min_cycle;Max_cycle;Signal;HPM_P1;HPM_P2
2022/04/01 00:01:03;;;;;;;10.18;1.85;;;16.30;99.90;;;;;;5003314;28;20394;-64
2022/04/01 00:03:31;;;;;;;8.73;1.30;;;16.30;99.90;;;;;;4988241;28;20030;-65
2022/04/01 00:05:59;;;;;;;10.13;2.42;;;16.50;99.90;;;;;;4977024;28;20446;-66
2022/04/01 00:08:27;;;;;;;10.48;1.83;;;16.60;99.90;;;;;;4990371;28;20399;-65
2022/04/01 00:10:54;;;;;;;8.35;1.60;;;16.60;99.90;;;;;;4991906;28;20026;-65
2022/04/01 00:13:21;;;;;;;7.35;1.23;;;16.70;99.90;;;;;;4993949;28;20031;-65
2022/04/01 00:15:50;;;;;;;10.05;1.38;;;16.70;99.90;;;;;;4993914;28;20027;-64
2022/04/01 00:18:19;;;;;;;9.82;1.63;;;16.70;99.90;;;;;;4995581;28;20434;-66
2022/04/01 00:20:46;;;;;;;5.97;1.13;;;16.70;99.90;;;;;;4995414;28;20026;-64
2022/04/01 00:23:14;;;;;;;6.35;1.15;;;16.80;99.90;;;;;;4995698;28;20034;-68
2022/04/01 00:25:45;;;;;;;8.27;1.80;;;16.70;99.90;;;;;;4989558;28;20026;-67
2022/04/01 00:28:13;;;;;;;9.80;1.73;;;16.80;99.90;;;;;;4994242;28;20089;-67
2022/04/01 00:30:41;;;;;;;9.93;1.23;;;16.90;99.90;;;;;;4993557;28;20034;-68
2022/04/01 00:33:09;;;;;;;8.20;1.88;;;17.10;99.90;;;;;;5005322;28;20022;-67
2022/04/01 00:35:37;;;;;;;8.38;1.58;;;17.10;99.90;;;;;;4990295;28;20034;-67
2022/04/01 00:38:05;;;;;;;8.75;1.60;;;17.10;99.90;;;;;;4993315;28;20018;-67
2022/04/01 00:40:33;;;;;;;9.23;1.90;;;17.10;99.90;;;;;;4989096;28;20057;-68
2022/04/01 00:43:00;;;;;;;8.75;1.63;;;17.10;99.90;;;;;;4990420;28;20364;-67
2022/04/01 00:45:28;;;;;;;10.10;2.17;;;17.10;99.90;;;;;;4994281;28;20050;-67
2022/04/01 00:48:01;;;;;;;6.35;1.48;;;17.20;99.90;;;;;;4989504;28;20037;-67
2022/04/01 00:50:33;;;;;;;10.40;1.73;;;17.20;99.90;;;;;;5003962;28;20038;-69
2022/04/01 00:53:02;;;;;;;8.70;1.70;;;17.40;99.90;;;;;;4990536;28;20046;-68
2022/04/01 00:55:30;;;;;;;5.70;1.17;;;17.40;99.90;;;;;;4988849;28;20018;-69
2022/04/01 00:57:58;;;;;;;6.20;1.02;;;17.50;99.90;;;;;;4992057;28;20026;-67
2022/04/01 01:00:27;;;;;;;7.13;1.10;;;17.50;99.90;;;;;;4991998;28;20030;-68
2022/04/01 01:02:57;;;;;;;4.55;0.98;;;17.90;99.90;;;;;;4988020;28;20037;-68
2022/04/01 01:05:25;;;;;;;4.82;1.13;;;18.30;99.90;;;;;;5003538;28;20143;-68
2022/04/01 01:07:53;;;;;;;5.35;0.80;;;18.20;99.90;;;;;;4991589;28;20026;-67
2022/04/01 01:10:21;;;;;;;4.60;0.80;;;18.10;99.90;;;;;;4991679;28;20030;-68
2022/04/01 01:12:50;;;;;;;5.18;0.90;;;18.00;99.90;;;;;;4993079;28;20037;-68
2022/04/01 01:15:19;;;;;;;3.83;0.63;;;17.80;99.90;;;;;;4991355;28;20042;-67
2022/04/01 01:17:49;;;;;;;4.85;0.75;;;18.00;99.90;;;;;;4983057;28;20029;-67
2022/04/01 01:20:17;;;;;;;5.53;1.02;;;18.00;99.90;;;;;;4990280;28;20034;-68
2022/04/01 01:22:49;;;;;;;4.28;0.85;;;18.00;99.90;;;;;;4990038;28;20026;-68
2022/04/01 01:25:18;;;;;;;6.35;1.00;;;17.90;99.90;;;;;;5008543;28;20035;-69
2022/04/01 01:27:46;;;;;;;5.13;0.93;;;17.90;99.90;;;;;;4993310;28;20038;-67
2022/04/01 01:30:14;;;;;;;5.18;1.05;;;17.90;99.90;;;;;;4992632;28;20030;-67
2022/04/01 01:32:43;;;;;;;3.63;0.90;;;17.90;99.90;;;;;;4985687;28;20022;-67
2022/04/01 01:35:12;;;;;;;4.40;1.00;;;17.80;99.90;;;;;;4991700;28;20037;-67
2022/04/01 01:37:39;;;;;;;4.57;0.80;;;17.90;99.90;;;;;;4989837;28;20033;-67
2022/04/01 01:40:09;;;;;;;4.93;0.95;;;17.80;99.90;;;;;;4992014;28;20029;-67
2022/04/01 01:42:37;;;;;;;5.60;0.90;;;17.60;99.90;;;;;;4992499;28;20363;-67
2022/04/01 01:45:06;;;;;;;4.07;0.80;;;17.70;99.90;;;;;;4993172;28;20050;-68
2022/04/01 01:47:34;;;;;;;5.45;0.77;;;17.80;99.90;;;;;;5008509;28;20618;-67
2022/04/01 01:55:23;;;;;;;4.00;0.70;;;17.80;99.90;;;;;;4993121;28;20053;-68
2022/04/01 01:57:51;;;;;;;4.60;0.88;;;17.70;99.90;;;;;;4990743;28;20022;-67
2022/04/01 02:00:22;;;;;;;3.75;1.40;;;17.60;99.90;;;;;;4974100;28;20019;-67
2022/04/01 02:02:50;;;;;;;5.85;1.05;;;17.80;99.90;;;;;;4981004;28;20034;-68
2022/04/01 02:05:20;;;;;;;4.47;1.38;;;17.70;99.90;;;;;;4989109;28;20140;-67
2022/04/01 02:07:48;;;;;;;4.28;0.93;;;17.60;99.90;;;;;;4983112;28;20018;-67
2022/04/01 02:10:17;;;;;;;8.23;1.15;;;17.50;99.90;;;;;;4987029;28;20030;-67
2022/04/01 02:12:44;;;;;;;4.22;0.70;;;17.60;99.90;;;;;;4982273;28;20048;-68
2022/04/01 02:15:12;;;;;;;3.63;0.63;;;17.60;99.90;;;;;;4992955;28;20034;-67
2022/04/01 02:17:41;;;;;;;3.58;0.95;;;17.70;99.90;;;;;;4992927;28;20081;-66
2022/04/01 02:20:10;;;;;;;8.90;1.33;;;17.80;99.90;;;;;;4993054;28;20026;-67
2022/04/01 02:22:39;;;;;;;3.95;0.60;;;17.80;99.90;;;;;;4987673;28;20021;-66
2022/04/01 02:25:16;;;;;;;3.10;0.73;;;17.80;99.90;;;;;;4976535;28;20034;-67
2022/04/01 02:27:44;;;;;;;4.75;0.82;;;17.60;99.90;;;;;;4992310;28;20026;-67
2022/04/01 02:30:12;;;;;;;4.72;0.85;;;17.60;99.90;;;;;;4990118;28;20499;-66
2022/04/01 02:32:43;;;;;;;3.28;0.60;;;17.70;99.90;;;;;;4989431;28;20101;-67
2022/04/01 02:35:11;;;;;;;2.92;0.80;;;17.90;99.90;;;;;;4992773;28;20022;-68
2022/04/01 02:37:40;;;;;;;5.63;0.93;;;18.10;99.90;;;;;;4992365;28;20031;-67
2022/04/01 02:40:09;;;;;;;4.72;0.88;;;18.20;99.90;;;;;;5008078;28;20118;-67
2022/04/01 02:42:39;;;;;;;3.58;1.08;;;18.10;99.90;;;;;;4991974;28;20101;-67
2022/04/01 02:45:08;;;;;;;7.90;1.45;;;18.20;99.90;;;;;;4992702;28;20050;-67
2022/04/01 02:47:35;;;;;;;8.20;1.50;;;18.20;99.90;;;;;;4992819;28;20054;-68
2022/04/01 02:50:05;;;;;;;5.07;0.70;;;18.10;99.90;;;;;;4991992;28;20076;-68
2022/04/01 02:52:32;;;;;;;6.95;1.10;;;18.10;99.90;;;;;;4991655;28;20490;-68
2022/04/01 02:54:59;;;;;;;6.45;0.95;;;18.00;99.90;;;;;;4992127;28;20085;-68
2022/04/01 02:57:27;;;;;;;2.92;0.68;;;18.00;99.90;;;;;;4991663;28;20065;-67
2022/04/01 02:59:54;;;;;;;5.05;1.13;;;18.00;99.90;;;;;;5007361;28;20540;-67
2022/04/01 03:02:22;;;;;;;6.00;1.08;;;18.00;99.90;;;;;;4991488;28;20038;-68
2022/04/01 03:04:49;;;;;;;3.88;0.82;;;18.10;99.90;;;;;;4989260;28;20483;-68
2022/04/01 03:07:18;;;;;;;5.53;1.17;;;18.20;99.90;;;;;;4976247;28;20031;-68
2022/04/01 03:09:46;;;;;;;7.93;1.20;;;18.00;99.90;;;;;;4976199;28;20023;-68
2022/04/01 03:12:13;;;;;;;5.75;1.35;;;18.00;99.90;;;;;;4991679;28;20109;-69
2022/04/01 03:14:41;;;;;;;3.38;0.65;;;18.00;99.90;;;;;;4992000;28;20098;-67
2022/04/01 03:17:10;;;;;;;6.97;1.17;;;18.20;99.90;;;;;;4991395;28;20041;-67
2022/04/01 03:19:39;;;;;;;3.85;0.98;;;18.40;99.90;;;;;;4992351;28;20117;-68
2022/04/01 03:22:06;;;;;;;5.53;1.30;;;18.30;99.90;;;;;;4991204;28;20026;-67
2022/04/01 03:24:35;;;;;;;6.50;1.17;;;18.20;99.90;;;;;;4981146;28;20026;-69
2022/04/01 03:27:03;;;;;;;6.45;0.98;;;18.20;99.90;;;;;;4986053;28;20383;-68
2022/04/01 03:29:32;;;;;;;6.78;1.15;;;18.00;99.90;;;;;;4998271;28;20089;-69
2022/04/01 03:32:00;;;;;;;9.05;1.08;;;17.90;99.90;;;;;;4991988;28;20128;-66
2022/04/01 03:34:28;;;;;;;6.10;1.00;;;17.90;99.90;;;;;;4993865;28;20030;-68
2022/04/01 03:36:55;;;;;;;8.30;1.35;;;17.90;99.90;;;;;;4986624;28;20014;-67
2022/04/01 03:39:24;;;;;;;8.65;1.30;;;17.90;99.90;;;;;;4986456;28;20022;-67
2022/04/01 03:41:52;;;;;;;2.97;0.93;;;17.80;99.90;;;;;;4994604;28;20026;-68
2022/04/01 03:44:21;;;;;;;5.28;1.15;;;17.70;99.90;;;;;;4988653;28;20113;-68
2022/04/01 03:47:17;;;;;;;6.35;0.88;;;17.60;99.90;;;;;;4991493;28;20093;-67
2022/04/01 03:49:54;;;;;;;2.53;0.68;;;17.70;99.90;;;;;;4984155;28;20471;-67
2022/04/01 03:52:24;;;;;;;5.90;1.23;;;17.70;99.90;;;;;;4988609;28;20170;-67
2022/04/01 03:54:59;;;;;;;6.75;1.00;;;17.70;99.90;;;;;;4988952;28;20033;-67
2022/04/01 03:57:36;;;;;;;6.85;1.33;;;17.60;99.90;;;;;;5009980;28;20470;-67
2022/04/01 04:00:07;;;;;;;10.40;1.08;;;17.60;99.90;;;;;;4993904;28;20022;-68
2022/04/01 04:02:36;;;;;;;7.85;1.02;;;17.60;99.90;;;;;;4995004;28;20028;-67
2022/04/01 04:05:07;;;;;;;6.57;1.10;;;17.80;99.90;;;;;;4994584;28;20026;-67
2022/04/01 04:07:35;;;;;;;5.45;1.00;;;17.80;99.90;;;;;;4994835;28;20018;-67
2022/04/01 04:10:06;;;;;;;6.57;1.30;;;18.00;99.90;;;;;;4994837;28;20038;-68
2022/04/01 04:12:35;;;;;;;5.28;0.88;;;18.00;99.90;;;;;;5004315;28;20038;-67
2022/04/01 04:15:04;;;;;;;6.95;1.63;;;18.10;99.90;;;;;;4994385;28;20033;-68
2022/04/01 04:17:45;;;;;;;5.47;0.95;;;18.00;99.90;;;;;;4994110;28;20033;-67
2022/04/01 04:20:35;;;;;;;6.05;1.25;;;18.00;99.90;;;;;;4994225;28;20446;-68
2022/04/01 04:23:03;;;;;;;5.65;1.15;;;18.00;99.90;;;;;;4988953;28;20022;-67
2022/04/01 04:25:40;;;;;;;7.32;1.35;;;18.00;99.90;;;;;;4994470;28;20050;-67
2022/04/01 04:28:12;;;;;;;17.67;1.52;;;17.90;99.90;;;;;;4994050;28;20022;-68
2022/04/01 04:30:49;;;;;;;6.28;1.75;;;17.90;99.90;;;;;;4991552;28;20501;-66
2022/04/01 04:33:21;;;;;;;6.97;1.65;;;17.80;99.90;;;;;;4987047;28;20049;-67
2022/04/01 04:35:50;;;;;;;7.30;1.45;;;17.80;99.90;;;;;;4991755;28;20030;-67
2022/04/01 04:38:20;;;;;;;8.05;0.90;;;17.80;99.90;;;;;;4989368;28;20033;-68
2022/04/01 04:40:50;;;;;;;8.65;1.33;;;17.90;99.90;;;;;;4994688;28;20033;-67
2022/04/01 04:43:21;;;;;;;16.35;1.75;;;17.90;99.90;;;;;;4990164;28;20498;-69
2022/04/01 04:45:58;;;;;;;17.05;2.40;;;17.80;99.90;;;;;;4988751;28;20380;-68
2022/04/01 04:48:27;;;;;;;5.93;0.80;;;17.90;99.90;;;;;;5006078;28;20049;-69
2022/04/01 04:50:58;;;;;;;7.50;1.15;;;18.00;99.90;;;;;;4989984;28;20103;-68
2022/04/01 04:53:30;;;;;;;7.75;1.05;;;18.00;99.90;;;;;;5005267;28;20034;-67
2022/04/01 04:56:02;;;;;;;8.80;1.55;;;17.90;99.90;;;;;;4986018;28;20053;-67
2022/04/01 04:58:39;;;;;;;6.78;0.73;;;18.00;99.90;;;;;;4982464;28;20473;-67
2022/04/01 05:01:25;;;;;;;4.93;1.40;;;18.10;99.90;;;;;;4992452;28;20060;-67
2022/04/01 05:04:21;;;;;;;9.00;1.58;;;18.20;99.90;;;;;;4988577;28;20375;-68
2022/04/01 05:07:02;;;;;;;12.75;1.95;;;18.00;99.90;;;;;;4989243;28;20018;-68
2022/04/01 05:10:03;;;;;;;7.07;0.77;;;18.00;99.90;;;;;;4990888;28;20030;-68
2022/04/01 05:12:58;;;;;;;7.07;1.10;;;18.00;99.90;;;;;;5004093;28;20169;-68
2022/04/01 05:15:30;;;;;;;7.05;1.23;;;18.10;99.90;;;;;;4990017;28;20077;-68
2022/04/01 05:18:21;;;;;;;6.60;1.65;;;18.10;99.90;;;;;;4991632;28;20026;-68
2022/04/01 05:21:02;;;;;;;6.40;1.63;;;18.00;99.90;;;;;;4992643;28;20022;-68
2022/04/01 05:23:54;;;;;;;10.25;1.73;;;17.90;99.90;;;;;;4988461;28;20034;-68
2022/04/01 05:26:38;;;;;;;5.28;0.80;;;17.90;99.90;;;;;;4991514;28;20755;-67
2022/04/01 05:29:09;;;;;;;5.97;0.80;;;17.90;99.90;;;;;;4984507;28;20546;-67
2022/04/01 05:31:46;;;;;;;7.82;1.42;;;17.80;99.90;;;;;;4992555;28;20072;-68
2022/04/01 05:34:34;;;;;;;4.68;1.10;;;17.80;99.90;;;;;;4993757;28;20054;-68
2022/04/01 05:37:02;;;;;;;7.15;1.25;;;17.80;99.90;;;;;;4981928;28;20022;-67
2022/04/01 05:39:31;;;;;;;6.32;1.08;;;17.80;99.90;;;;;;4992821;28;20066;-68
2022/04/01 05:41:59;;;;;;;7.07;0.88;;;17.70;99.90;;;;;;5008502;28;20041;-68
2022/04/01 05:44:27;;;;;;;7.97;0.95;;;17.60;99.90;;;;;;4991919;28;20033;-68
2022/04/01 05:46:55;;;;;;;7.60;1.45;;;17.60;99.90;;;;;;4985843;28;20035;-67
2022/04/01 05:49:23;;;;;;;7.47;1.30;;;17.60;99.90;;;;;;4991381;28;20042;-68
2022/04/01 05:51:51;;;;;;;7.85;1.63;;;17.60;99.90;;;;;;4993169;28;20065;-68
2022/04/01 05:54:19;;;;;;;7.80;1.77;;;17.60;99.90;;;;;;4989014;28;20114;-68
2022/04/01 05:56:47;;;;;;;10.40;2.28;;;17.60;99.90;;;;;;4989160;28;20023;-68
2022/04/01 05:59:20;;;;;;;8.57;1.15;;;17.60;99.90;;;;;;4989277;28;20025;-68
2022/04/01 06:02:02;;;;;;;5.72;1.05;;;17.60;99.90;;;;;;4991886;28;20092;-67
2022/04/01 06:05:00;;;;;;;13.50;1.88;;;17.50;99.90;;;;;;4991949;28;20482;-67
2022/04/01 06:07:35;;;;;;;5.10;0.95;;;17.50;99.90;;;;;;4989997;28;20116;-68
2022/04/01 06:10:11;;;;;;;8.73;1.95;;;17.60;99.90;;;;;;5004439;28;20030;-68
2022/04/01 06:12:56;;;;;;;9.95;1.67;;;17.50;99.90;;;;;;4987095;28;20031;-69
2022/04/01 06:15:54;;;;;;;8.80;1.55;;;17.50;99.90;;;;;;4986163;28;20442;-69
2022/04/01 06:18:41;;;;;;;6.28;1.48;;;17.50;99.90;;;;;;4982910;28;20019;-69
2022/04/01 06:21:14;;;;;;;10.15;2.13;;;17.50;99.90;;;;;;4990609;28;20087;-69
2022/04/01 06:24:09;;;;;;;8.30;1.90;;;17.50;99.90;;;;;;4988232;28;20130;-69
2022/04/01 06:26:52;;;;;;;7.50;1.63;;;17.60;99.90;;;;;;4991265;28;20438;-68
2022/04/01 06:30:08;;;;;;;7.40;1.40;;;17.60;99.90;;;;;;4992609;28;20080;-69
2022/04/01 06:32:50;;;;;;;8.13;1.30;;;17.60;99.90;;;;;;4982962;28;20081;-70
2022/04/01 06:35:18;;;;;;;10.38;1.75;;;17.50;99.90;;;;;;4989598;28;20026;-69
2022/04/01 06:38:23;;;;;;;8.40;1.20;;;17.50;99.90;;;;;;4991576;28;20507;-69
2022/04/01 06:40:56;;;;;;;7.05;1.17;;;17.60;99.90;;;;;;4990302;28;20038;-68
2022/04/01 06:43:24;;;;;;;8.57;1.10;;;17.50;99.90;;;;;;4986225;28;20030;-68
2022/04/01 06:45:51;;;;;;;8.75;1.77;;;17.60;99.90;;;;;;4988754;28;20047;-68
2022/04/01 06:48:19;;;;;;;7.18;1.65;;;17.60;99.90;;;;;;4990632;28;20049;-69
2022/04/01 06:50:49;;;;;;;7.88;1.90;;;17.50;99.90;;;;;;4989556;28;20033;-68
2022/04/01 06:53:18;;;;;;;4.70;0.93;;;17.50;99.90;;;;;;4993053;28;20014;-69
2022/04/01 06:55:47;;;;;;;9.93;1.70;;;17.50;99.90;;;;;;4993070;28;20160;-68
2022/04/01 06:58:14;;;;;;;5.88;1.10;;;17.50;99.90;;;;;;4994324;28;20029;-68
2022/04/01 07:00:42;;;;;;;6.55;1.00;;;17.50;99.90;;;;;;4991805;28;20132;-68
2022/04/01 07:03:11;;;;;;;8.30;1.48;;;17.50;99.90;;;;;;4990426;28;20081;-69
2022/04/01 07:05:39;;;;;;;6.85;1.85;;;17.50;99.90;;;;;;5003666;28;20084;-68
2022/04/01 07:08:07;;;;;;;6.75;0.88;;;17.40;99.90;;;;;;4991061;28;20030;-69
2022/04/01 07:10:35;;;;;;;7.68;1.20;;;17.50;99.90;;;;;;4995788;28;20033;-67
2022/04/01 07:13:03;;;;;;;7.80;1.42;;;17.50;99.90;;;;;;4994463;28;20156;-68
2022/04/01 07:15:30;;;;;;;6.03;1.20;;;17.40;99.90;;;;;;4993407;28;20038;-70
2022/04/01 07:17:59;;;;;;;4.40;0.70;;;17.50;99.90;;;;;;4981245;28;20037;-68
2022/04/01 07:20:26;;;;;;;6.88;1.65;;;17.40;99.90;;;;;;4991031;28;20042;-69
2022/04/01 07:22:54;;;;;;;8.48;1.23;;;17.40;99.90;;;;;;4994777;28;20050;-68
2022/04/01 07:25:23;;;;;;;6.55;1.48;;;17.40;99.90;;;;;;4995648;28;20437;-68
2022/04/01 07:27:54;;;;;;;7.65;1.27;;;17.40;99.90;;;;;;4988507;28;20357;-68
2022/04/01 07:30:22;;;;;;;10.05;1.92;;;17.40;99.90;;;;;;4991833;28;20533;-69
2022/04/01 07:32:54;;;;;;;8.25;1.45;;;17.40;99.90;;;;;;4992611;28;20022;-68
2022/04/01 07:35:22;;;;;;;4.63;0.80;;;17.40;99.90;;;;;;5000464;28;20038;-68
2022/04/01 07:37:49;;;;;;;5.82;0.75;;;17.40;99.90;;;;;;4995726;28;20069;-69
2022/04/01 07:40:18;;;;;;;6.72;1.25;;;17.40;99.90;;;;;;4994414;28;20038;-68
2022/04/01 07:42:46;;;;;;;5.05;0.77;;;17.40;99.90;;;;;;4976134;28;20022;-68
2022/04/01 07:45:13;;;;;;;6.00;1.05;;;17.40;99.90;;;;;;4976016;28;20113;-68
2022/04/01 07:47:44;;;;;;;5.03;1.00;;;17.40;99.90;;;;;;4974949;28;20023;-68
2022/04/01 07:50:14;;;;;;;7.20;1.05;;;17.30;99.90;;;;;;4976086;28;20031;-68
2022/04/01 07:52:43;;;;;;;3.40;1.02;;;17.30;99.90;;;;;;5009013;28;20387;-68
2022/04/01 07:55:13;;;;;;;5.25;1.27;;;17.30;99.90;;;;;;5010668;28;20403;-68
2022/04/01 07:57:41;;;;;;;8.73;1.40;;;17.30;99.90;;;;;;4995616;28;20352;-69
2022/04/01 08:00:10;;;;;;;2.67;0.80;;;17.30;99.90;;;;;;4995531;28;20475;-69
2022/04/01 08:02:39;;;;;;;7.95;1.15;;;17.30;99.90;;;;;;4994888;28;20023;-68
2022/04/01 08:05:10;;;;;;;6.53;0.80;;;17.20;99.90;;;;;;5009918;28;20031;-68
2022/04/01 08:07:38;;;;;;;7.82;1.35;;;17.30;99.90;;;;;;4991177;28;20038;-69
2022/04/01 08:10:07;;;;;;;6.05;0.70;;;17.30;99.90;;;;;;4994319;28;20121;-68
2022/04/01 08:12:36;;;;;;;3.92;0.60;;;17.30;99.90;;;;;;5006995;28;20038;-68
2022/04/01 08:15:05;;;;;;;7.32;1.33;;;17.30;99.90;;;;;;4992933;28;20554;-68
2022/04/01 08:17:32;;;;;;;7.70;1.27;;;17.30;99.90;;;;;;4995048;28;20018;-69
2022/04/01 08:19:59;;;;;;;3.90;0.50;;;17.30;99.90;;;;;;5008116;28;20037;-69
2022/04/01 08:22:26;;;;;;;5.10;0.70;;;17.30;99.90;;;;;;4993123;28;20085;-68
2022/04/01 08:24:54;;;;;;;6.32;1.42;;;17.20;99.90;;;;;;4993915;28;20105;-68
2022/04/01 08:27:22;;;;;;;6.45;0.80;;;17.20;99.90;;;;;;4993801;28;20023;-68
2022/04/01 08:29:49;;;;;;;5.55;1.33;;;17.20;99.90;;;;;;4975730;28;20034;-69
2022/04/01 08:32:16;;;;;;;5.90;0.93;;;17.20;99.90;;;;;;4975235;28;20042;-68
2022/04/01 08:34:44;;;;;;;5.68;0.90;;;17.10;99.90;;;;;;4993571;28;20491;-67
2022/04/01 08:37:11;;;;;;;8.18;1.00;;;17.20;99.90;;;;;;4995326;28;20037;-68
2022/04/01 08:39:43;;;;;;;5.55;0.70;;;17.10;99.90;;;;;;4990596;28;20058;-69
2022/04/01 08:42:11;;;;;;;6.60;1.35;;;17.20;99.90;;;;;;4994953;28;20037;-68
2022/04/01 08:44:41;;;;;;;7.65;1.15;;;17.20;99.90;;;;;;4977846;28;20414;-69
2022/04/01 08:47:09;;;;;;;6.93;1.13;;;17.20;99.90;;;;;;4994938;28;20022;-68
2022/04/01 08:49:37;;;;;;;5.38;0.60;;;17.20;99.90;;;;;;5008052;28;20142;-68
2022/04/01 08:52:08;;;;;;;6.57;0.70;;;17.20;99.90;;;;;;4974371;28;20129;-68
2022/04/01 08:54:35;;;;;;;3.85;1.02;;;17.10;99.90;;;;;;4992267;28;20081;-68
2022/04/01 08:57:04;;;;;;;3.08;0.50;;;17.10;99.90;;;;;;4993702;28;20101;-68
2022/04/01 08:59:33;;;;;;;4.28;0.70;;;17.10;99.90;;;;;;5008534;28;20026;-68
2022/04/01 09:02:10;;;;;;;5.82;0.68;;;17.10;99.90;;;;;;4994458;28;20113;-68
2022/04/01 09:04:38;;;;;;;6.15;0.93;;;17.10;99.90;;;;;;4993494;28;20022;-68
2022/04/01 09:07:16;;;;;;;7.20;1.23;;;17.00;99.90;;;;;;4990094;28;20027;-68
2022/04/01 09:09:47;;;;;;;5.03;0.63;;;17.00;99.90;;;;;;4994202;28;20093;-68
2022/04/01 09:12:19;;;;;;;5.85;0.60;;;17.00;99.90;;;;;;4980827;28;20034;-68
2022/04/01 09:14:54;;;;;;;5.60;0.80;;;17.00;99.90;;;;;;4987346;28;20023;-68
2022/04/01 09:17:22;;;;;;;2.20;0.65;;;17.00;99.90;;;;;;4991420;28;20076;-68
2022/04/01 09:20:05;;;;;;;6.22;1.08;;;17.00;99.90;;;;;;4987588;28;20029;-67
2022/04/01 09:22:32;;;;;;;8.68;1.10;;;17.00;99.90;;;;;;4991646;28;20046;-68
2022/04/01 09:25:04;;;;;;;6.80;1.27;;;17.00;99.90;;;;;;4975785;28;20029;-68
2022/04/01 09:27:52;;;;;;;5.93;1.05;;;17.00;99.90;;;;;;4975460;28;20498;-69
2022/04/01 09:30:26;;;;;;;6.50;0.70;;;17.00;99.90;;;;;;4985062;28;20081;-68
2022/04/01 09:32:59;;;;;;;7.35;1.35;;;17.00;99.90;;;;;;4986406;28;20384;-68
2022/04/01 09:35:30;;;;;;;6.50;0.90;;;16.90;99.90;;;;;;4977736;28;20026;-68
2022/04/01 09:38:04;;;;;;;4.05;0.50;;;17.00;99.90;;;;;;5003487;28;20074;-68
2022/04/01 09:40:35;;;;;;;8.07;1.25;;;16.90;99.90;;;;;;4974578;28;20462;-68
2022/04/01 09:43:02;;;;;;;8.40;1.95;;;16.90;99.90;;;;;;4986396;28;20022;-68
2022/04/01 09:45:39;;;;;;;3.65;0.55;;;16.90;99.90;;;;;;4992615;28;20049;-68
2022/04/01 09:48:16;;;;;;;6.10;0.73;;;16.90;99.90;;;;;;4977202;28;20038;-68
2022/04/01 09:50:54;;;;;;;7.28;0.90;;;16.80;99.90;;;;;;4990452;28;20383;-68
2022/04/01 09:53:24;;;;;;;6.20;1.20;;;16.80;99.90;;;;;;4984528;28;20023;-69
2022/04/01 09:55:53;;;;;;;9.38;1.30;;;16.80;99.90;;;;;;4976055;28;20034;-69
2022/04/01 09:58:23;;;;;;;6.07;1.13;;;16.90;99.90;;;;;;4989118;28;20053;-69
2022/04/01 10:00:52;;;;;;;7.88;0.95;;;16.80;99.90;;;;;;4991771;28;20458;-68
2022/04/01 10:03:20;;;;;;;7.65;1.30;;;16.80;99.90;;;;;;4986284;28;20030;-68
2022/04/01 10:05:47;;;;;;;9.73;1.75;;;16.70;99.90;;;;;;4988098;28;20467;-68
2022/04/01 10:08:15;;;;;;;6.65;1.05;;;16.70;99.90;;;;;;4982701;28;20034;-68
2022/04/01 10:10:44;;;;;;;8.38;1.63;;;16.70;99.90;;;;;;4987559;28;20030;-68
2022/04/01 10:13:30;;;;;;;5.07;0.80;;;16.70;99.90;;;;;;4985637;28;20027;-69
2022/04/01 10:16:01;;;;;;;8.15;1.85;;;16.70;99.90;;;;;;4990537;28;20038;-69
2022/04/01 10:18:30;;;;;;;9.98;1.05;;;16.70;99.90;;;;;;5002064;28;20035;-68
2022/04/01 10:21:00;;;;;;;6.35;1.20;;;16.60;99.90;;;;;;4984781;28;20022;-69
2022/04/01 10:23:28;;;;;;;4.63;1.00;;;16.60;99.90;;;;;;4984550;28;20030;-68
2022/04/01 10:26:09;;;;;;;7.25;1.27;;;16.60;99.90;;;;;;4991261;28;20037;-69
2022/04/01 10:28:36;;;;;;;7.80;1.23;;;16.60;99.90;;;;;;4982266;28;20031;-67
2022/04/01 10:31:04;;;;;;;5.15;0.70;;;16.60;99.90;;;;;;4975749;28;20384;-68
2022/04/01 10:33:35;;;;;;;7.18;1.13;;;16.50;99.90;;;;;;4983201;28;20041;-68
2022/04/01 10:36:28;;;;;;;6.07;1.10;;;16.50;99.90;;;;;;4994091;28;20376;-68
2022/04/01 10:39:07;;;;;;;5.75;0.80;;;16.50;99.90;;;;;;4989481;28;20031;-68
2022/04/01 10:41:35;;;;;;;9.45;1.98;;;16.50;99.90;;;;;;4994676;28;20026;-67
2022/04/01 10:44:03;;;;;;;7.13;0.95;;;16.50;99.90;;;;;;4994518;28;20044;-68
2022/04/01 10:46:31;;;;;;;6.70;0.90;;;16.50;99.90;;;;;;4993571;28;20116;-67
2022/04/01 10:52:11;;;;;;;5.40;0.90;;;16.60;99.90;;;;;;4981842;28;20081;-68
2022/04/01 10:54:43;;;;;;;6.80;0.73;;;16.60;99.90;;;;;;4987696;28;20026;-67
2022/04/01 10:57:32;;;;;;;5.25;0.57;;;16.60;99.90;;;;;;4990108;28;20031;-67
2022/04/01 11:00:01;;;;;;;5.55;0.70;;;16.60;99.90;;;;;;4989349;28;20089;-68
2022/04/01 11:02:29;;;;;;;8.13;1.10;;;16.60;99.90;;;;;;4985798;28;20470;-68
2022/04/01 11:05:00;;;;;;;11.30;1.67;;;16.60;99.90;;;;;;4990512;28;20030;-67
2022/04/01 11:07:29;;;;;;;6.72;0.80;;;16.50;99.90;;;;;;4993807;28;20069;-68
2022/04/01 11:09:58;;;;;;;6.72;1.65;;;16.50;99.90;;;;;;4990476;28;20036;-68
2022/04/01 11:12:29;;;;;;;6.72;1.27;;;16.50;99.90;;;;;;4992962;28;20046;-69
2022/04/01 11:15:07;;;;;;;7.00;0.90;;;16.50;99.90;;;;;;5004813;28;20375;-69
2022/04/01 11:17:52;;;;;;;6.38;0.70;;;16.40;99.90;;;;;;4992883;28;20261;-68
2022/04/01 11:20:22;;;;;;;3.58;0.63;;;16.40;99.90;;;;;;4978518;28;20038;-68
2022/04/01 11:23:00;;;;;;;3.88;1.33;;;16.40;99.90;;;;;;4992665;28;20461;-68
2022/04/01 11:25:33;;;;;;;4.93;1.05;;;16.40;99.90;;;;;;4994684;28;20022;-69
2022/04/01 11:28:10;;;;;;;10.75;1.73;;;16.50;99.90;;;;;;4991267;28;20505;-69
2022/04/01 11:30:57;;;;;;;8.38;1.58;;;16.40;99.90;;;;;;4991503;28;20129;-68
2022/04/01 11:33:24;;;;;;;5.25;0.50;;;16.40;99.90;;;;;;4993274;28;20043;-69
2022/04/01 11:35:57;;;;;;;10.95;2.05;;;16.40;99.90;;;;;;4994479;28;20034;-69
2022/04/01 11:38:26;;;;;;;10.43;1.13;;;16.40;99.90;;;;;;4991072;28;20113;-68
2022/04/01 11:40:58;;;;;;;5.93;1.65;;;16.40;99.90;;;;;;4988141;28;20034;-70
2022/04/01 11:43:27;;;;;;;5.97;1.13;;;16.40;99.90;;;;;;4985061;28;20042;-69
2022/04/01 11:45:57;;;;;;;5.68;0.73;;;16.40;99.90;;;;;;4991839;28;20141;-69
2022/04/01 11:48:35;;;;;;;7.63;1.00;;;16.40;99.90;;;;;;4989548;28;20026;-69
2022/04/01 11:51:04;;;;;;;12.60;1.38;;;16.50;99.90;;;;;;4991099;28;20073;-69
2022/04/01 11:53:35;;;;;;;10.85;1.52;;;16.50;99.90;;;;;;4989113;28;20093;-69
2022/04/01 11:56:07;;;;;;;6.88;1.52;;;16.40;99.90;;;;;;4992936;28;20539;-69
2022/04/01 11:58:55;;;;;;;5.45;1.05;;;16.40;99.90;;;;;;4992999;28;20533;-69
2022/04/01 12:01:57;;;;;;;5.68;0.88;;;16.50;99.90;;;;;;4988702;28;20093;-68
2022/04/01 12:04:35;;;;;;;5.80;0.68;;;16.50;99.90;;;;;;4983853;28;20015;-68
2022/04/01 12:09:59;;;;;;;4.88;0.95;;;16.40;99.90;;;;;;4987287;28;20153;-69
2022/04/01 12:12:27;;;;;;;4.35;0.85;;;16.50;99.90;;;;;;4992606;28;20035;-68
2022/04/01 12:15:00;;;;;;;7.55;1.27;;;16.50;99.90;;;;;;4992999;28;20446;-68
2022/04/01 12:17:27;;;;;;;6.22;0.63;;;16.50;99.90;;;;;;4990084;28;20070;-69
2022/04/01 12:20:13;;;;;;;4.22;0.77;;;16.60;99.90;;;;;;4994447;28;20018;-69
2022/04/01 12:22:41;;;;;;;4.70;1.10;;;16.60;99.90;;;;;;4990801;28;20026;-68
2022/04/01 12:25:08;;;;;;;5.25;0.82;;;16.60;99.90;;;;;;4992933;28;20034;-68
2022/04/01 12:27:52;;;;;;;7.53;1.05;;;16.60;99.90;;;;;;4992311;28;20038;-68
2022/04/01 12:30:39;;;;;;;3.45;0.40;;;16.60;99.90;;;;;;4988732;28;20022;-68
2022/04/01 12:33:15;;;;;;;5.25;0.90;;;16.60;99.90;;;;;;4990360;28;20022;-69
2022/04/01 12:36:02;;;;;;;7.57;1.00;;;16.60;99.90;;;;;;4990580;28;20506;-68
2022/04/01 12:38:32;;;;;;;3.60;0.70;;;16.60;99.90;;;;;;4991713;28;20058;-68
2022/04/01 12:41:05;;;;;;;10.30;0.77;;;16.60;99.90;;;;;;4993567;28;20029;-69
2022/04/01 12:43:45;;;;;;;7.32;0.90;;;16.60;99.90;;;;;;4990706;28;20031;-69
2022/04/01 12:46:25;;;;;;;5.20;0.60;;;16.60;99.90;;;;;;4991534;28;20678;-69
2022/04/01 12:48:56;;;;;;;5.47;0.70;;;16.60;99.90;;;;;;4987250;28;20030;-69
2022/04/01 12:51:35;;;;;;;6.55;0.95;;;16.60;99.90;;;;;;4992535;28;20388;-68
2022/04/01 12:54:05;;;;;;;5.18;1.13;;;16.60;99.90;;;;;;4990223;28;20092;-68
2022/04/01 12:56:41;;;;;;;5.88;1.15;;;16.60;99.90;;;;;;4986271;28;20023;-68
2022/04/01 12:59:14;;;;;;;5.43;1.27;;;16.60;99.90;;;;;;4988226;28;20030;-69
2022/04/01 13:01:43;;;;;;;8.35;1.10;;;16.60;99.90;;;;;;4984579;28;20053;-68
2022/04/01 13:04:20;;;;;;;2.97;0.70;;;16.60;99.90;;;;;;4992735;28;20041;-69
2022/04/01 13:07:07;;;;;;;6.75;0.50;;;16.50;99.90;;;;;;4991259;28;20026;-69
2022/04/01 13:09:48;;;;;;;4.15;0.52;;;16.50;99.90;;;;;;4990778;28;20035;-71
2022/04/01 13:12:17;;;;;;;2.60;0.52;;;16.50;99.90;;;;;;4982990;28;20045;-69
2022/04/01 13:14:45;;;;;;;6.93;0.90;;;16.50;99.90;;;;;;5003844;28;20041;-69
2022/04/01 13:17:15;;;;;;;6.13;0.50;;;16.50;99.90;;;;;;4992510;28;20031;-69
2022/04/01 13:19:44;;;;;;;6.93;1.23;;;16.40;99.90;;;;;;4993017;28;20101;-69
2022/04/01 13:22:12;;;;;;;3.70;0.93;;;16.40;99.90;;;;;;4992894;28;20041;-69